Le Roy, Iowa
Current Conditions -  °F | °C
As of 8:55 PM on Wednesday 26 Nov 2014 (Local Time) from KCNC Reporting Station
Light Rain Light Rain  
Wind Chill: 19°   Ceiling: 900
Heat Index: 30°   Visibility: 4mi
Dew Point: 28°   Wind: 16mph
Humidity: 93%   Direction: 340°NNW
Pressure: 30.27"   Gusts: NA
Location:  40.8241°N, 93.5225°W
Report Text: KCNC 270255Z AUTO 34014KT 4SM -RA BKN009 BKN012 OVC018 M01/M02 A3027 RMK AO2
Loading
Personal Weather Stations






























Interactive Weather Map New forecast layout! Learn more

10-Day Weather Forecast

Advertisements
Track Severe Weather on mobile